Time;durP1;ratioP1;P1;durP2;ratioP2;P2;SDS_P1;SDS_P2;PMS_P1;PMS_P2;Temp;Humidity;BMP_temperature;BMP_pressure;BME280_temperature;BME280_humidity;BME280_pressure;Samples;Min_cycle;Max_cycle;Signal;HPM_P1;HPM_P2
2021/08/21 00:02:17;;;;;;;7.18;4.85;;;;;;;13.46;53.79;101847.09;5053280;28;20499;-70
2021/08/21 00:04:42;;;;;;;10.48;5.90;;;;;;;13.40;53.96;101847.31;5064653;28;20082;-69
2021/08/21 00:07:08;;;;;;;10.52;5.22;;;;;;;13.37;54.17;101851.84;5056393;28;20147;-70
2021/08/21 00:09:37;;;;;;;8.45;4.70;;;;;;;13.37;54.19;101847.44;5067296;28;20040;-70
2021/08/21 00:12:04;;;;;;;11.13;6.20;;;;;;;13.32;54.29;101852.00;5075687;28;20038;-69
2021/08/21 00:14:30;;;;;;;8.40;5.45;;;;;;;13.39;54.52;101848.25;5057672;28;20021;-69
2021/08/21 00:16:55;;;;;;;8.98;4.80;;;;;;;13.54;54.31;101849.47;5072131;28;20148;-70
2021/08/21 00:19:21;;;;;;;8.07;5.30;;;;;;;13.63;53.89;101853.50;5055733;28;20037;-69
2021/08/21 00:21:48;;;;;;;6.65;4.43;;;;;;;13.69;53.70;101848.88;5070079;28;20033;-69
2021/08/21 00:24:14;;;;;;;9.27;5.85;;;;;;;13.64;53.62;101850.00;5056853;28;20090;-70
2021/08/21 00:26:39;;;;;;;11.70;5.85;;;;;;;13.52;53.76;101843.41;5056192;28;20690;-70
2021/08/21 00:29:05;;;;;;;10.02;5.45;;;;;;;13.39;54.03;101845.63;5057852;28;20029;-71
2021/08/21 00:31:30;;;;;;;12.45;6.13;;;;;;;13.27;54.45;101839.03;5052105;28;20028;-70
2021/08/21 00:33:56;;;;;;;11.05;6.10;;;;;;;13.22;54.36;101822.59;5064392;28;20596;-69
2021/08/21 00:36:22;;;;;;;9.40;5.18;;;;;;;13.17;54.75;101828.94;5054212;28;20036;-69
2021/08/21 00:38:47;;;;;;;9.27;5.35;;;;;;;13.11;54.82;101822.97;5055868;28;20934;-69
2021/08/21 00:41:13;;;;;;;8.15;4.90;;;;;;;13.09;55.26;101832.69;5055069;28;20171;-69
2021/08/21 00:43:39;;;;;;;9.65;5.07;;;;;;;13.11;55.28;101836.09;5058243;28;20063;-69
2021/08/21 00:46:05;;;;;;;7.25;4.88;;;;;;;13.21;54.75;101839.25;5074774;28;20043;-69
2021/08/21 00:48:31;;;;;;;7.50;4.70;;;;;;;13.33;54.38;101837.94;5074457;28;20115;-70
2021/08/21 00:51:01;;;;;;;8.70;4.93;;;;;;;13.20;54.31;101837.53;5060130;28;20103;-71
2021/08/21 00:53:28;;;;;;;8.05;5.20;;;;;;;13.08;54.50;101841.47;5057568;28;20564;-71
2021/08/21 00:55:55;;;;;;;6.88;3.45;;;;;;;13.18;54.36;101838.50;5057119;28;20028;-68
2021/08/21 00:58:23;;;;;;;6.88;4.65;;;;;;;13.16;54.36;101849.06;5070054;28;20072;-71
2021/08/21 01:00:50;;;;;;;5.22;3.17;;;;;;;13.08;54.20;101846.72;5055982;28;20029;-70
2021/08/21 01:03:17;;;;;;;4.75;3.58;;;;;;;13.09;54.55;101848.44;5058765;28;20071;-68
2021/08/21 01:05:42;;;;;;;5.88;3.95;;;;;;;13.19;54.22;101840.22;5060418;28;20570;-69
2021/08/21 01:08:08;;;;;;;7.15;3.95;;;;;;;13.19;54.33;101842.84;5060901;28;20025;-68
2021/08/21 01:10:47;;;;;;;7.07;3.83;;;;;;;13.16;54.14;101848.19;5065829;28;20036;-68
2021/08/21 01:13:14;;;;;;;8.32;2.33;;;;;;;13.10;54.16;101850.13;5059540;28;20068;-68
2021/08/21 01:15:39;;;;;;;3.88;2.95;;;;;;;13.00;54.11;101846.09;5073879;28;20077;-68
2021/08/21 01:18:08;;;;;;;5.88;3.10;;;;;;;13.00;54.11;101859.22;5058252;28;20055;-69
2021/08/21 01:20:34;;;;;;;5.93;4.25;;;;;;;12.90;53.88;101853.44;5050314;28;20044;-68
2021/08/21 01:23:05;;;;;;;6.85;3.72;;;;;;;12.88;54.10;101850.03;5043648;28;20062;-69
2021/08/21 01:25:34;;;;;;;7.50;4.10;;;;;;;12.78;54.30;101851.25;5058564;28;20433;-68
2021/08/21 01:28:02;;;;;;;6.05;3.97;;;;;;;12.72;54.34;101848.84;5058247;28;20121;-67
2021/08/21 01:30:48;;;;;;;5.38;3.50;;;;;;;12.73;54.42;101849.69;5058452;28;20114;-68
2021/08/21 01:33:24;;;;;;;5.55;3.47;;;;;;;12.82;54.57;101850.22;5059439;28;20044;-69
2021/08/21 01:35:53;;;;;;;5.45;3.17;;;;;;;12.94;54.56;101846.34;5042904;28;20557;-70
2021/08/21 01:38:20;;;;;;;5.57;4.82;;;;;;;13.01;54.30;101839.97;5064194;28;20033;-68
2021/08/21 01:41:17;;;;;;;6.00;4.47;;;;;;;13.04;54.45;101839.00;5076052;28;20032;-68
2021/08/21 01:43:45;;;;;;;6.63;3.65;;;;;;;13.19;54.33;101842.84;5045420;28;20055;-68
2021/08/21 01:46:11;;;;;;;4.10;3.22;;;;;;;13.24;54.07;101840.91;5049474;28;20045;-68
2021/08/21 01:48:44;;;;;;;5.47;3.28;;;;;;;13.26;54.21;101828.59;5063341;28;20032;-69
2021/08/21 01:51:09;;;;;;;7.28;4.15;;;;;;;13.33;54.41;101832.69;5062923;28;20029;-68
2021/08/21 01:53:35;;;;;;;6.25;3.50;;;;;;;13.41;54.07;101827.19;5057048;28;20044;-68
2021/08/21 01:56:02;;;;;;;6.18;3.22;;;;;;;13.52;53.92;101831.13;5057841;28;20024;-68
2021/08/21 01:58:50;;;;;;;7.45;4.05;;;;;;;13.49;53.64;101825.13;5057688;28;20033;-68
2021/08/21 02:01:27;;;;;;;8.98;4.55;;;;;;;13.52;53.58;101818.00;5053288;28;20028;-69
2021/08/21 02:04:18;;;;;;;7.35;4.28;;;;;;;13.55;53.96;101821.41;5062238;28;20029;-68
2021/08/21 02:06:44;;;;;;;6.90;4.93;;;;;;;13.63;54.15;101814.13;5063405;28;20025;-68
2021/08/21 02:09:16;;;;;;;7.15;4.65;;;;;;;13.69;54.09;101822.63;5057212;28;20147;-68
2021/08/21 02:11:44;;;;;;;8.60;4.32;;;;;;;13.81;53.91;101818.69;5056964;28;20041;-68
2021/08/21 02:14:10;;;;;;;7.43;4.93;;;;;;;13.94;52.94;101824.28;5058106;28;20107;-68
2021/08/21 02:16:38;;;;;;;16.17;5.72;;;;;;;14.02;53.29;101829.28;5063740;28;20078;-68
2021/08/21 02:19:04;;;;;;;10.85;5.72;;;;;;;13.96;53.51;101824.25;5064893;28;20537;-69
2021/08/21 02:21:46;;;;;;;10.13;5.03;;;;;;;13.92;53.44;101827.00;5050281;28;20115;-69
2021/08/21 02:24:12;;;;;;;10.68;5.43;;;;;;;13.84;53.52;101825.59;5064962;28;20045;-68
2021/08/21 02:26:42;;;;;;;12.80;5.72;;;;;;;13.85;53.67;101830.78;5045648;28;20056;-68
2021/08/21 02:29:13;;;;;;;9.65;5.50;;;;;;;13.88;53.80;101835.91;5063946;28;20912;-69
2021/08/21 02:31:39;;;;;;;9.63;5.70;;;;;;;13.86;53.65;101832.50;5056204;28;20044;-69
2021/08/21 02:34:05;;;;;;;9.60;5.72;;;;;;;13.72;54.02;101829.56;5059840;28;20029;-68
2021/08/21 02:36:31;;;;;;;9.88;5.93;;;;;;;13.80;53.98;101827.47;5060009;28;20035;-69
2021/08/21 02:38:57;;;;;;;9.18;5.90;;;;;;;13.75;54.12;101837.31;5071986;28;20036;-69
2021/08/21 02:41:23;;;;;;;9.93;6.05;;;;;;;13.75;53.95;101832.06;5058945;28;20054;-69
2021/08/21 02:43:49;;;;;;;8.60;5.47;;;;;;;13.74;54.13;101830.31;5070612;28;20041;-68
2021/08/21 02:46:15;;;;;;;8.43;5.47;;;;;;;13.64;54.27;101828.97;5058343;28;20438;-70
2021/08/21 02:48:41;;;;;;;10.23;6.47;;;;;;;13.75;54.25;101832.06;5058997;28;20389;-68
2021/08/21 02:51:06;;;;;;;10.02;5.82;;;;;;;13.80;54.00;101832.72;5061505;28;20036;-68
2021/08/21 02:53:32;;;;;;;13.27;6.05;;;;;;;13.81;54.11;101823.94;5055073;28;20043;-70
2021/08/21 02:55:57;;;;;;;12.07;5.93;;;;;;;13.69;54.24;101833.13;5065306;28;20028;-70
2021/08/21 02:58:24;;;;;;;12.88;6.95;;;;;;;13.61;54.80;101837.00;5043474;28;20033;-68
2021/08/21 03:00:50;;;;;;;12.77;6.53;;;;;;;13.60;54.24;101828.22;5054912;28;20083;-69
2021/08/21 03:03:16;;;;;;;13.85;7.13;;;;;;;13.71;54.64;101833.06;5058160;28;20062;-69
2021/08/21 03:05:47;;;;;;;15.00;7.50;;;;;;;13.61;54.38;101839.63;5071390;28;20040;-69
2021/08/21 03:08:14;;;;;;;11.13;6.57;;;;;;;13.54;54.62;101838.94;5046261;28;20041;-69
2021/08/21 03:10:45;;;;;;;13.80;7.60;;;;;;;13.55;54.64;101834.53;5057715;28;20092;-69
2021/08/21 03:13:10;;;;;;;15.05;7.50;;;;;;;13.53;54.85;101838.06;5059384;28;20091;-69
2021/08/21 03:15:36;;;;;;;14.55;7.25;;;;;;;13.58;55.02;101845.81;5059656;28;20024;-69
2021/08/21 03:18:03;;;;;;;13.73;6.93;;;;;;;13.62;54.31;101841.31;5070636;28;20037;-69
2021/08/21 03:20:29;;;;;;;10.57;6.85;;;;;;;13.64;54.63;101847.38;5057387;28;20020;-69
2021/08/21 03:22:55;;;;;;;11.93;5.93;;;;;;;13.69;54.20;101845.41;5070179;28;20104;-69
2021/08/21 03:25:27;;;;;;;10.65;5.82;;;;;;;13.77;54.33;101851.25;5053135;28;20091;-69
2021/08/21 03:27:53;;;;;;;12.45;6.55;;;;;;;13.75;54.10;101841.72;5056522;28;20040;-69
2021/08/21 03:30:19;;;;;;;12.45;7.10;;;;;;;13.67;54.29;101844.59;5046827;28;20507;-69
2021/08/21 03:32:47;;;;;;;12.13;5.95;;;;;;;13.71;54.42;101847.06;5060030;28;20093;-69
2021/08/21 03:35:15;;;;;;;9.18;6.35;;;;;;;13.69;54.26;101853.28;5071434;28;20032;-69
2021/08/21 03:37:41;;;;;;;9.50;5.47;;;;;;;13.67;54.27;101847.25;5073387;28;20520;-69
2021/08/21 03:40:08;;;;;;;9.82;6.28;;;;;;;13.84;53.99;101852.72;5064198;28;20043;-69
2021/08/21 03:42:34;;;;;;;11.93;6.05;;;;;;;13.82;53.83;101849.28;5063365;28;20116;-69
2021/08/21 03:45:07;;;;;;;13.75;7.40;;;;;;;13.84;53.59;101844.84;5062554;28;20045;-69
2021/08/21 03:47:33;;;;;;;11.15;6.43;;;;;;;13.83;53.68;101850.13;5062899;28;20036;-69
2021/08/21 03:49:58;;;;;;;17.55;6.53;;;;;;;13.85;53.59;101843.94;5056952;28;20697;-69
2021/08/21 03:52:24;;;;;;;12.32;7.20;;;;;;;13.84;53.61;101847.47;5073936;28;20025;-70
2021/08/21 03:54:50;;;;;;;12.52;6.22;;;;;;;13.89;53.65;101855.16;5056665;28;20089;-68
2021/08/21 03:57:17;;;;;;;16.50;6.82;;;;;;;13.98;53.69;101853.97;5070076;28;20056;-68
2021/08/21 03:59:45;;;;;;;16.27;7.43;;;;;;;13.86;53.47;101853.50;5062473;28;20041;-68
2021/08/21 04:02:12;;;;;;;15.48;6.75;;;;;;;13.93;53.76;101848.88;5043654;28;20037;-68
2021/08/21 04:04:38;;;;;;;13.32;6.60;;;;;;;13.94;53.78;101846.19;5055488;28;20581;-68
2021/08/21 04:07:08;;;;;;;10.77;6.60;;;;;;;13.90;53.72;101847.22;5055415;28;20033;-69
2021/08/21 04:09:34;;;;;;;11.73;5.95;;;;;;;13.85;53.41;101843.94;5046929;28;20067;-68
2021/08/21 04:12:00;;;;;;;12.82;7.03;;;;;;;13.83;53.57;101856.28;5058654;28;20127;-68
2021/08/21 04:14:30;;;;;;;10.30;6.60;;;;;;;13.87;53.22;101855.22;5055122;28;20353;-68
2021/08/21 04:16:55;;;;;;;8.85;5.60;;;;;;;13.84;53.67;101851.88;5074055;28;20029;-69
2021/08/21 04:19:22;;;;;;;14.27;6.80;;;;;;;13.75;53.94;101850.44;5055998;28;20032;-69
2021/08/21 04:21:50;;;;;;;9.73;6.05;;;;;;;13.81;53.43;101851.97;5066938;28;20524;-69
2021/08/21 04:24:31;;;;;;;16.85;7.57;;;;;;;13.77;53.08;101851.25;5055773;28;20521;-69
2021/08/21 04:27:01;;;;;;;11.57;6.25;;;;;;;13.78;53.20;101852.94;5056260;28;20033;-68
2021/08/21 04:29:28;;;;;;;13.90;7.57;;;;;;;13.77;52.98;101855.66;5055412;28;20112;-69
2021/08/21 04:31:54;;;;;;;12.43;6.43;;;;;;;13.74;53.44;101861.84;5069513;28;20024;-68
2021/08/21 04:34:19;;;;;;;11.43;6.63;;;;;;;13.67;53.39;101860.38;5057226;28;20029;-68
2021/08/21 04:36:46;;;;;;;10.77;5.55;;;;;;;13.67;53.27;101861.25;5051812;28;20025;-68
2021/08/21 04:39:15;;;;;;;12.63;7.07;;;;;;;13.69;53.17;101861.19;5053208;28;20047;-68
2021/08/21 04:41:41;;;;;;;11.90;6.45;;;;;;;13.71;53.49;101864.59;5060897;28;20025;-68
2021/08/21 04:44:07;;;;;;;13.05;7.22;;;;;;;13.78;53.25;101857.34;5056837;28;20041;-68
2021/08/21 04:46:34;;;;;;;13.93;6.63;;;;;;;13.74;53.36;101861.84;5042552;28;20111;-68
2021/08/21 04:49:01;;;;;;;8.95;6.22;;;;;;;13.69;53.33;101869.91;5053785;28;20569;-69
2021/08/21 04:51:26;;;;;;;12.43;6.15;;;;;;;13.83;53.13;101856.28;5059173;28;20256;-68
2021/08/21 04:53:52;;;;;;;12.77;6.45;;;;;;;13.83;53.14;101856.28;5058514;28;20043;-68
2021/08/21 04:56:18;;;;;;;9.95;5.28;;;;;;;13.84;53.17;101854.50;5043483;28;20032;-68
2021/08/21 04:59:02;;;;;;;10.45;5.88;;;;;;;13.84;53.27;101867.63;5070917;28;20048;-69
2021/08/21 05:01:28;;;;;;;13.32;5.97;;;;;;;13.87;53.26;101847.34;5055494;28;20390;-68
2021/08/21 05:03:54;;;;;;;8.50;5.47;;;;;;;13.96;53.17;101856.63;5057022;28;20033;-68
2021/08/21 05:06:20;;;;;;;10.77;5.40;;;;;;;14.01;53.28;101857.34;5054517;28;20079;-68
2021/08/21 05:08:46;;;;;;;11.18;6.78;;;;;;;14.09;52.81;101857.88;5055552;28;20102;-68
2021/08/21 05:11:12;;;;;;;11.18;6.72;;;;;;;14.05;53.02;101856.28;5059018;28;20044;-68
2021/08/21 05:13:39;;;;;;;12.32;6.55;;;;;;;14.09;52.73;101859.66;5041419;28;20036;-68
2021/08/21 05:16:07;;;;;;;12.68;5.63;;;;;;;14.12;52.80;101863.03;5060952;28;20033;-68
2021/08/21 05:18:54;;;;;;;15.05;6.13;;;;;;;14.06;52.61;101859.78;5042678;28;20501;-68
2021/08/21 05:21:46;;;;;;;11.18;6.38;;;;;;;14.15;53.01;101862.03;5061256;28;20402;-68
2021/08/21 05:24:12;;;;;;;10.88;6.07;;;;;;;14.27;52.21;101864.16;5060926;28;20121;-68
2021/08/21 05:26:37;;;;;;;11.82;5.72;;;;;;;14.30;52.24;101856.19;5057788;28;20116;-68
2021/08/21 05:29:03;;;;;;;12.30;6.13;;;;;;;14.45;52.08;101873.13;5046197;28;20066;-68
2021/08/21 05:31:28;;;;;;;11.68;6.05;;;;;;;14.46;51.27;101874.00;5056232;28;20027;-68
2021/08/21 05:33:54;;;;;;;13.93;6.28;;;;;;;14.47;51.61;101867.81;5041244;28;20020;-68
2021/08/21 05:36:23;;;;;;;9.43;5.15;;;;;;;14.59;51.65;101869.97;5060285;28;20039;-68
2021/08/21 05:38:48;;;;;;;10.98;6.05;;;;;;;14.79;51.44;101879.66;5054488;28;20040;-68
2021/08/21 05:41:13;;;;;;;12.70;5.75;;;;;;;14.83;50.46;101875.09;5070683;28;20457;-68
2021/08/21 05:43:39;;;;;;;9.25;4.82;;;;;;;14.84;50.82;101871.56;5071512;28;20082;-69
2021/08/21 05:46:04;;;;;;;9.95;5.22;;;;;;;14.83;50.81;101873.31;5057537;28;20079;-68
2021/08/21 05:48:30;;;;;;;8.85;5.10;;;;;;;14.81;50.73;101876.94;5070922;28;20025;-68
2021/08/21 05:50:55;;;;;;;8.23;5.32;;;;;;;14.84;50.83;101882.09;5054798;28;20056;-69
2021/08/21 05:53:21;;;;;;;8.48;5.13;;;;;;;14.90;50.73;101877.41;5056050;28;20021;-68
2021/08/21 05:55:46;;;;;;;9.02;5.25;;;;;;;15.05;50.31;101885.56;5058330;28;20037;-68
2021/08/21 05:58:15;;;;;;;10.35;6.13;;;;;;;15.16;49.56;101878.91;5071493;28;20253;-68
2021/08/21 06:00:46;;;;;;;7.80;5.43;;;;;;;15.14;49.56;101883.38;5058486;28;20033;-69
2021/08/21 06:03:11;;;;;;;8.68;5.45;;;;;;;15.17;49.55;101875.38;5057790;28;20486;-68
2021/08/21 06:05:41;;;;;;;7.75;4.90;;;;;;;15.34;48.73;101881.69;5058247;28;20055;-68
2021/08/21 06:08:07;;;;;;;8.57;4.90;;;;;;;15.81;48.09;101883.97;5054646;28;20036;-69
2021/08/21 06:10:35;;;;;;;8.65;4.47;;;;;;;15.85;48.43;101888.16;5046667;28;20059;-68
2021/08/21 06:13:02;;;;;;;7.45;4.40;;;;;;;16.03;47.33;101890.91;5073293;28;20033;-68
2021/08/21 06:15:27;;;;;;;8.50;4.57;;;;;;;16.23;46.99;101885.53;5059717;28;20024;-68
2021/08/21 06:17:53;;;;;;;7.93;4.90;;;;;;;16.12;47.19;101887.84;5059277;28;20039;-69
2021/08/21 06:20:18;;;;;;;7.40;4.47;;;;;;;16.12;47.75;101885.19;5058132;28;20453;-70
2021/08/21 06:22:44;;;;;;;12.73;4.18;;;;;;;16.30;46.80;101886.09;5061840;28;20044;-69
2021/08/21 06:25:10;;;;;;;8.35;4.18;;;;;;;16.15;47.24;101891.19;5059479;28;20040;-68
2021/08/21 06:27:37;;;;;;;5.97;3.83;;;;;;;16.11;46.94;101888.78;5060483;28;20035;-69
2021/08/21 06:30:04;;;;;;;9.10;4.38;;;;;;;15.99;47.79;101884.88;5058757;28;20039;-70
2021/08/21 06:32:29;;;;;;;6.07;3.28;;;;;;;15.92;48.55;101886.94;5053512;28;20074;-68
2021/08/21 06:34:55;;;;;;;6.63;3.72;;;;;;;16.30;47.49;101883.47;5055942;28;20032;-69
2021/08/21 06:37:20;;;;;;;5.97;3.28;;;;;;;17.60;43.72;101882.16;5074916;28;20469;-69
2021/08/21 06:39:45;;;;;;;9.60;4.88;;;;;;;17.47;44.09;101886.34;5053953;28;20032;-69
2021/08/21 06:42:11;;;;;;;7.97;3.42;;;;;;;17.14;44.87;101886.34;5056994;28;20029;-68
2021/08/21 06:44:41;;;;;;;7.55;3.65;;;;;;;16.96;44.81;101893.44;5059636;28;20044;-68
2021/08/21 06:47:06;;;;;;;5.97;3.50;;;;;;;17.01;45.28;101897.53;5055084;28;20054;-68
2021/08/21 06:49:32;;;;;;;4.78;3.35;;;;;;;17.23;45.59;101893.78;5047693;28;20128;-69
2021/08/21 06:51:57;;;;;;;5.82;3.28;;;;;;;17.75;44.37;101885.75;5072582;28;20033;-68
2021/08/21 06:54:23;;;;;;;5.18;3.60;;;;;;;17.70;43.12;101893.06;5054569;28;20048;-69
2021/08/21 06:56:48;;;;;;;5.07;2.88;;;;;;;19.27;41.11;101892.91;5070982;28;20033;-68
2021/08/21 06:59:14;;;;;;;4.38;2.65;;;;;;;19.03;40.10;101899.69;5057245;28;20163;-69
2021/08/21 07:01:40;;;;;;;5.28;2.70;;;;;;;18.79;40.80;101896.69;5062124;28;20056;-69
2021/08/21 07:04:05;;;;;;;3.30;2.33;;;;;;;18.55;41.74;101898.97;5057874;28;20033;-69
2021/08/21 07:06:31;;;;;;;4.57;2.78;;;;;;;18.25;42.24;101892.69;5058987;28;20029;-69
2021/08/21 07:08:57;;;;;;;5.82;2.58;;;;;;;18.04;42.67;101899.16;5073497;28;20032;-69
2021/08/21 07:11:22;;;;;;;4.30;2.38;;;;;;;18.23;42.93;101893.72;5064619;28;20528;-69
2021/08/21 07:13:48;;;;;;;6.72;3.17;;;;;;;18.77;41.79;101890.63;5066661;28;20090;-68
2021/08/21 07:16:14;;;;;;;4.47;2.63;;;;;;;19.03;41.76;101889.09;5063923;28;20482;-69
2021/08/21 07:18:39;;;;;;;6.53;3.53;;;;;;;18.90;41.17;101883.69;5060626;28;20032;-68
2021/08/21 07:21:08;;;;;;;6.13;3.65;;;;;;;18.46;42.28;101895.06;5077023;28;20051;-69
2021/08/21 07:23:34;;;;;;;4.53;2.28;;;;;;;18.33;42.87;101892.25;5076323;28;20041;-69
2021/08/21 07:25:59;;;;;;;7.82;2.63;;;;;;;18.12;43.12;101893.41;5055941;28;20045;-69
2021/08/21 07:28:25;;;;;;;4.70;3.20;;;;;;;17.87;43.16;101897.44;5063627;28;20055;-69
2021/08/21 07:30:50;;;;;;;5.97;2.53;;;;;;;18.03;43.41;101887.72;5057149;28;20518;-70
2021/08/21 07:33:16;;;;;;;4.38;2.67;;;;;;;18.56;42.03;101890.91;5069395;28;20104;-73
2021/08/21 07:35:42;;;;;;;3.75;2.70;;;;;;;19.22;41.08;101900.28;5062712;28;20059;-68
2021/08/21 07:38:08;;;;;;;5.20;2.28;;;;;;;19.42;40.26;101895.59;5066648;28;20056;-68
2021/08/21 07:40:35;;;;;;;4.63;3.20;;;;;;;19.09;40.50;101896.69;5060014;28;20055;-68
2021/08/21 07:43:00;;;;;;;5.22;2.92;;;;;;;18.72;41.02;101896.19;5050379;28;20104;-68
2021/08/21 07:45:26;;;;;;;6.15;2.75;;;;;;;19.24;39.80;101892.25;5065447;28;20060;-68
2021/08/21 07:47:52;;;;;;;4.57;3.47;;;;;;;19.24;40.60;101893.09;5059098;28;20383;-68
2021/08/21 07:50:18;;;;;;;8.50;2.80;;;;;;;18.79;41.91;101899.34;5059557;28;20055;-68
2021/08/21 07:52:45;;;;;;;4.85;2.38;;;;;;;18.47;42.53;101894.97;5058296;28;20037;-68
2021/08/21 07:55:11;;;;;;;5.30;2.88;;;;;;;18.36;43.24;101894.72;5075052;28;20521;-68
2021/08/21 07:57:37;;;;;;;5.40;3.15;;;;;;;18.30;42.61;101889.78;5057598;28;20036;-68
2021/08/21 08:00:03;;;;;;;4.50;2.58;;;;;;;18.93;42.18;101893.25;5059960;28;20025;-69
2021/08/21 08:02:42;;;;;;;6.47;2.58;;;;;;;18.73;41.92;101897.03;5058001;28;20688;-69
2021/08/21 08:05:08;;;;;;;3.53;2.65;;;;;;;18.50;42.73;101901.00;5057072;28;20533;-68
2021/08/21 08:07:34;;;;;;;4.05;2.22;;;;;;;18.26;43.01;101902.31;5059524;28;20032;-69
2021/08/21 08:09:59;;;;;;;3.35;2.33;;;;;;;18.11;43.01;101905.81;5044816;28;20048;-69
2021/08/21 08:12:25;;;;;;;4.78;2.90;;;;;;;18.09;43.69;101902.38;5053961;28;20080;-68
2021/08/21 08:14:50;;;;;;;6.20;3.28;;;;;;;18.20;43.62;101904.47;5052933;28;20040;-68
2021/08/21 08:17:16;;;;;;;4.63;3.00;;;;;;;18.29;43.71;101901.31;5059816;28;20032;-68
2021/08/21 08:19:41;;;;;;;3.53;2.50;;;;;;;18.12;43.52;101901.34;5055817;28;20054;-69
2021/08/21 08:22:07;;;;;;;5.00;2.97;;;;;;;17.93;43.93;101901.53;5051583;28;20119;-68
2021/08/21 08:24:32;;;;;;;6.38;3.03;;;;;;;17.67;44.17;101898.53;5053565;28;20961;-68
2021/08/21 08:26:58;;;;;;;3.65;2.60;;;;;;;17.51;45.15;101898.47;5058879;28;20701;-69
2021/08/21 08:29:23;;;;;;;4.22;2.75;;;;;;;17.36;45.47;101896.66;5059745;28;20126;-68
2021/08/21 08:31:49;;;;;;;4.28;2.30;;;;;;;17.11;46.16;101902.34;5072102;28;20036;-68
2021/08/21 08:34:14;;;;;;;4.55;2.20;;;;;;;17.03;46.86;101900.09;5066211;28;20038;-68
2021/08/21 08:36:40;;;;;;;6.25;3.42;;;;;;;16.91;47.42;101909.50;5063027;28;20025;-68
2021/08/21 08:39:05;;;;;;;4.55;2.75;;;;;;;16.86;47.11;101908.03;5075066;28;20074;-68
2021/08/21 08:41:31;;;;;;;4.90;2.85;;;;;;;17.06;46.59;101915.78;5060403;28;20021;-68
2021/08/21 08:43:58;;;;;;;8.43;3.25;;;;;;;17.18;46.25;101919.56;5058502;28;20044;-68
2021/08/21 08:46:24;;;;;;;4.43;2.47;;;;;;;17.23;45.98;101914.94;5058714;28;20132;-68
2021/08/21 08:48:49;;;;;;;11.38;3.50;;;;;;;17.71;44.90;101907.16;5061173;28;20056;-70
2021/08/21 08:51:16;;;;;;;4.25;2.70;;;;;;;18.12;44.39;101917.22;5061815;28;20288;-68
2021/08/21 08:53:42;;;;;;;7.75;3.78;;;;;;;18.17;43.62;101917.84;5062622;28;20037;-68
2021/08/21 08:56:07;;;;;;;8.23;3.67;;;;;;;18.29;43.16;101918.97;5076943;28;20043;-69
2021/08/21 08:58:33;;;;;;;5.53;3.03;;;;;;;18.35;42.94;101914.19;5074522;28;20036;-69
2021/08/21 09:00:59;;;;;;;4.45;2.75;;;;;;;19.16;41.73;101911.25;5058239;28;20043;-69
2021/08/21 09:03:27;;;;;;;6.13;3.58;;;;;;;19.39;40.34;101916.97;5046064;28;20037;-68
2021/08/21 09:05:54;;;;;;;9.07;4.55;;;;;;;19.75;39.94;101913.88;5065850;28;20061;-69
2021/08/21 09:08:27;;;;;;;8.15;3.80;;;;;;;19.97;40.43;101910.72;5075956;28;20037;-68
2021/08/21 09:10:57;;;;;;;6.60;3.70;;;;;;;20.21;39.02;101918.06;5051855;28;20037;-68
2021/08/21 09:13:23;;;;;;;6.88;3.88;;;;;;;20.01;39.84;101912.19;5067196;28;20032;-69
2021/08/21 09:15:54;;;;;;;7.90;4.38;;;;;;;19.79;40.91;101920.69;5056992;28;20082;-70
2021/08/21 09:18:29;;;;;;;7.70;4.05;;;;;;;19.98;40.69;101925.69;5057875;28;20096;-69
2021/08/21 09:20:57;;;;;;;9.02;4.82;;;;;;;20.20;40.23;101921.66;5055792;28;20028;-70
2021/08/21 09:23:39;;;;;;;5.35;3.63;;;;;;;20.35;40.45;101915.38;5068328;28;20041;-70
2021/08/21 09:26:24;;;;;;;9.00;4.32;;;;;;;19.96;39.88;101921.41;5074049;28;20041;-69
2021/08/21 09:28:51;;;;;;;8.85;4.85;;;;;;;19.94;40.60;101918.84;5055085;28;20526;-69
2021/08/21 09:31:21;;;;;;;9.55;5.00;;;;;;;19.97;40.62;101918.69;5057811;28;20021;-69
2021/08/21 09:33:56;;;;;;;3.80;3.15;;;;;;;20.44;41.24;101917.44;5055963;28;20075;-72
2021/08/21 09:36:34;;;;;;;10.40;5.03;;;;;;;20.88;40.23;101910.97;5048783;28;20044;-69
2021/08/21 09:39:05;;;;;;;11.02;4.18;;;;;;;21.47;38.18;101914.94;5053622;28;20033;-69
2021/08/21 09:41:50;;;;;;;8.18;4.32;;;;;;;21.69;38.09;101906.31;5064568;28;20032;-69
2021/08/21 09:44:25;;;;;;;5.53;4.38;;;;;;;21.53;38.20;101911.88;5062297;28;20028;-69
2021/08/21 09:47:08;;;;;;;5.82;3.05;;;;;;;21.53;38.43;101911.88;5058041;28;20047;-69
2021/08/21 09:49:34;;;;;;;9.25;4.43;;;;;;;21.59;38.17;101905.28;5053826;28;20130;-71
2021/08/21 09:52:05;;;;;;;8.18;5.28;;;;;;;21.08;39.11;101909.59;5055505;28;20052;-68
2021/08/21 09:54:31;;;;;;;;;;;;;;;21.34;38.41;101899.00;5071018;28;20099;-69
2021/08/21 09:56:57;;;;;;;7.68;4.60;;;;;;;22.06;38.40;101904.50;5058759;28;19917;-70
2021/08/21 09:59:36;;;;;;;11.13;5.97;;;;;;;21.74;38.53;101897.03;5056535;28;20033;-70
2021/08/21 10:02:10;;;;;;;11.02;5.35;;;;;;;21.04;39.40;101905.50;5072681;28;20059;-69
2021/08/21 10:04:38;;;;;;;8.55;5.45;;;;;;;20.72;40.33;101899.66;5056121;28;20602;-70
2021/08/21 10:07:05;;;;;;;10.07;4.80;;;;;;;20.43;40.88;101905.09;5057417;28;20033;-70
2021/08/21 10:09:33;;;;;;;7.13;5.45;;;;;;;20.22;41.77;101902.06;5063813;28;20037;-70
2021/08/21 10:11:59;;;;;;;6.35;5.45;;;;;;;19.91;41.95;101904.00;5056796;28;20052;-71
2021/08/21 10:14:25;;;;;;;12.90;5.72;;;;;;;20.04;42.22;101900.56;5052352;28;20478;-69
2021/08/21 10:16:51;;;;;;;9.32;5.38;;;;;;;20.02;42.37;101905.97;5052071;28;20118;-70
2021/08/21 10:19:18;;;;;;;8.15;5.00;;;;;;;20.16;42.09;101906.88;5055467;28;20071;-69
2021/08/21 10:21:50;;;;;;;8.90;6.13;;;;;;;20.33;41.98;101890.75;5071029;28;21569;-70
2021/08/21 10:24:23;;;;;;;;;;;;;;;20.37;42.17;101902.84;5055145;28;20040;-69
2021/08/21 10:26:55;;;;;;;7.38;5.32;;;;;;;20.43;41.77;101902.44;5052725;28;19970;-69
2021/08/21 10:29:21;;;;;;;9.65;4.95;;;;;;;20.42;41.29;101898.09;5063855;28;20074;-69
2021/08/21 10:31:47;;;;;;;9.07;5.95;;;;;;;20.22;41.80;101901.22;5052901;28;20028;-69
2021/08/21 10:34:14;;;;;;;11.90;6.43;;;;;;;20.10;41.74;101908.09;5069644;28;20051;-70
2021/08/21 10:36:58;;;;;;;9.35;6.10;;;;;;;20.16;41.84;101902.41;5070155;28;20045;-69
2021/08/21 10:39:30;;;;;;;6.65;5.07;;;;;;;20.12;42.24;101901.75;5058737;28;20041;-70
2021/08/21 10:41:56;;;;;;;9.30;5.15;;;;;;;19.97;42.27;101901.88;5060198;28;20041;-69
2021/08/21 10:44:41;;;;;;;10.77;5.35;;;;;;;19.94;43.33;101900.28;5055845;28;20120;-70
2021/08/21 10:47:09;;;;;;;7.75;4.55;;;;;;;20.42;42.41;101903.41;5056754;28;20049;-70
2021/08/21 10:49:43;;;;;;;7.93;5.32;;;;;;;20.47;40.72;101895.13;5052475;28;20025;-69
2021/08/21 10:52:45;;;;;;;8.32;4.82;;;;;;;21.12;40.43;101892.50;5039264;28;20029;-69
2021/08/21 10:55:12;;;;;;;7.50;5.25;;;;;;;21.25;39.58;101896.97;5056885;28;20044;-69
2021/08/21 10:57:54;;;;;;;9.80;5.30;;;;;;;21.42;40.26;101891.31;5063584;28;20102;-69
2021/08/21 11:00:38;;;;;;;7.47;4.80;;;;;;;21.67;39.70;101879.84;5070098;28;20508;-69
2021/08/21 11:03:15;;;;;;;7.38;4.55;;;;;;;22.06;38.45;101887.69;5054171;28;20048;-71
2021/08/21 11:05:56;;;;;;;6.57;4.72;;;;;;;22.82;36.86;101885.63;5071672;28;20033;-69
2021/08/21 11:08:24;;;;;;;9.15;5.68;;;;;;;23.27;35.36;101880.34;5071078;28;20086;-69
2021/08/21 11:11:21;;;;;;;9.02;5.57;;;;;;;24.48;34.05;101883.09;5071991;28;20044;-69
2021/08/21 11:13:58;;;;;;;9.10;5.45;;;;;;;24.08;35.54;101881.91;5057497;28;20071;-70
2021/08/21 11:16:45;;;;;;;9.18;5.55;;;;;;;24.01;35.09;101873.56;5060579;28;20592;-69
2021/08/21 11:19:12;;;;;;;6.13;4.85;;;;;;;24.02;35.74;101871.72;5053807;28;20029;-69
2021/08/21 11:21:39;;;;;;;10.75;6.72;;;;;;;23.66;34.90;101871.03;5054110;28;20033;-69
2021/08/21 11:24:29;;;;;;;10.88;6.25;;;;;;;23.50;35.77;101859.88;5071056;28;20032;-70
2021/08/21 11:27:22;;;;;;;10.32;6.20;;;;;;;23.03;36.60;101859.13;5056517;28;20720;-69
2021/08/21 11:30:12;;;;;;;10.35;6.80;;;;;;;22.83;37.78;101856.22;5052507;28;20047;-70
2021/08/21 11:32:59;;;;;;;8.45;6.32;;;;;;;22.79;37.61;101860.06;5055869;28;20032;-69